sensor_id;sensor_type;location;lat;lon;timestamp;P1;durP1;ratioP1;P2;durP2;ratioP2
35522;SDS011;61478;50.820;4.330;2023-04-21T00:00:53;14.00;;;11.55;;
35522;SDS011;61478;50.820;4.330;2023-04-21T00:03:20;14.15;;;12.00;;
35522;SDS011;61478;50.820;4.330;2023-04-21T00:05:48;16.45;;;12.52;;
35522;SDS011;61478;50.820;4.330;2023-04-21T00:08:15;16.73;;;13.00;;
35522;SDS011;61478;50.820;4.330;2023-04-21T00:10:41;14.10;;;12.57;;
35522;SDS011;61478;50.820;4.330;2023-04-21T00:13:07;22.58;;;13.45;;
35522;SDS011;61478;50.820;4.330;2023-04-21T00:15:33;15.30;;;13.77;;
35522;SDS011;61478;50.820;4.330;2023-04-21T00:17:59;18.10;;;13.27;;
35522;SDS011;61478;50.820;4.330;2023-04-21T00:20:25;16.90;;;12.85;;
35522;SDS011;61478;50.820;4.330;2023-04-21T00:22:57;15.57;;;13.23;;
35522;SDS011;61478;50.820;4.330;2023-04-21T00:25:24;17.73;;;13.05;;
35522;SDS011;61478;50.820;4.330;2023-04-21T00:27:50;17.58;;;12.95;;
35522;SDS011;61478;50.820;4.330;2023-04-21T00:30:16;13.70;;;12.30;;
35522;SDS011;61478;50.820;4.330;2023-04-21T00:32:42;14.40;;;12.60;;
35522;SDS011;61478;50.820;4.330;2023-04-21T00:35:08;17.20;;;12.88;;
35522;SDS011;61478;50.820;4.330;2023-04-21T00:37:34;15.10;;;13.20;;
35522;SDS011;61478;50.820;4.330;2023-04-21T00:40:01;15.30;;;13.65;;
35522;SDS011;61478;50.820;4.330;2023-04-21T00:42:28;13.75;;;12.40;;
35522;SDS011;61478;50.820;4.330;2023-04-21T00:44:54;13.85;;;12.43;;
35522;SDS011;61478;50.820;4.330;2023-04-21T00:47:20;14.13;;;12.82;;
35522;SDS011;61478;50.820;4.330;2023-04-21T00:49:46;14.32;;;12.93;;
35522;SDS011;61478;50.820;4.330;2023-04-21T00:52:12;13.75;;;12.45;;
35522;SDS011;61478;50.820;4.330;2023-04-21T00:54:41;14.38;;;13.02;;
35522;SDS011;61478;50.820;4.330;2023-04-21T00:57:08;15.80;;;14.07;;
35522;SDS011;61478;50.820;4.330;2023-04-21T00:59:35;15.85;;;14.02;;
35522;SDS011;61478;50.820;4.330;2023-04-21T01:02:01;15.70;;;14.20;;
35522;SDS011;61478;50.820;4.330;2023-04-21T01:04:27;17.13;;;15.38;;
35522;SDS011;61478;50.820;4.330;2023-04-21T01:06:53;17.58;;;15.73;;
35522;SDS011;61478;50.820;4.330;2023-04-21T01:09:19;16.65;;;15.05;;
35522;SDS011;61478;50.820;4.330;2023-04-21T01:12:01;17.45;;;15.85;;
35522;SDS011;61478;50.820;4.330;2023-04-21T01:14:32;17.42;;;15.60;;
35522;SDS011;61478;50.820;4.330;2023-04-21T01:16:58;18.42;;;16.65;;
35522;SDS011;61478;50.820;4.330;2023-04-21T01:19:24;18.30;;;16.45;;
35522;SDS011;61478;50.820;4.330;2023-04-21T01:21:52;19.23;;;17.42;;
35522;SDS011;61478;50.820;4.330;2023-04-21T01:24:21;18.90;;;17.23;;
35522;SDS011;61478;50.820;4.330;2023-04-21T01:26:49;20.67;;;18.77;;
35522;SDS011;61478;50.820;4.330;2023-04-21T01:29:15;20.15;;;18.10;;
35522;SDS011;61478;50.820;4.330;2023-04-21T01:31:42;21.02;;;19.02;;
35522;SDS011;61478;50.820;4.330;2023-04-21T01:34:11;20.05;;;17.92;;
35522;SDS011;61478;50.820;4.330;2023-04-21T01:36:37;21.25;;;19.15;;
35522;SDS011;61478;50.820;4.330;2023-04-21T01:39:03;21.13;;;19.10;;
35522;SDS011;61478;50.820;4.330;2023-04-21T01:41:28;21.77;;;19.77;;
35522;SDS011;61478;50.820;4.330;2023-04-21T01:43:54;21.67;;;19.60;;
35522;SDS011;61478;50.820;4.330;2023-04-21T01:46:20;23.00;;;20.70;;
35522;SDS011;61478;50.820;4.330;2023-04-21T01:48:46;24.33;;;22.13;;
35522;SDS011;61478;50.820;4.330;2023-04-21T01:51:12;25.05;;;22.55;;
35522;SDS011;61478;50.820;4.330;2023-04-21T01:53:38;24.48;;;22.15;;
35522;SDS011;61478;50.820;4.330;2023-04-21T01:56:04;25.48;;;23.13;;
35522;SDS011;61478;50.820;4.330;2023-04-21T01:58:30;24.73;;;22.45;;
35522;SDS011;61478;50.820;4.330;2023-04-21T02:00:56;28.05;;;25.13;;
35522;SDS011;61478;50.820;4.330;2023-04-21T02:03:22;27.83;;;25.25;;
35522;SDS011;61478;50.820;4.330;2023-04-21T02:05:49;29.35;;;26.52;;
35522;SDS011;61478;50.820;4.330;2023-04-21T02:08:15;31.58;;;28.75;;
35522;SDS011;61478;50.820;4.330;2023-04-21T02:10:41;30.42;;;27.38;;
35522;SDS011;61478;50.820;4.330;2023-04-21T02:13:07;29.95;;;27.15;;
35522;SDS011;61478;50.820;4.330;2023-04-21T02:15:33;32.33;;;29.40;;
35522;SDS011;61478;50.820;4.330;2023-04-21T02:18:01;33.35;;;30.25;;
35522;SDS011;61478;50.820;4.330;2023-04-21T02:20:27;32.90;;;30.00;;
35522;SDS011;61478;50.820;4.330;2023-04-21T02:22:52;33.45;;;30.55;;
35522;SDS011;61478;50.820;4.330;2023-04-21T02:25:18;34.67;;;31.55;;
35522;SDS011;61478;50.820;4.330;2023-04-21T02:27:44;33.40;;;30.40;;
35522;SDS011;61478;50.820;4.330;2023-04-21T02:30:10;33.17;;;30.17;;
35522;SDS011;61478;50.820;4.330;2023-04-21T02:32:36;35.80;;;32.28;;
35522;SDS011;61478;50.820;4.330;2023-04-21T02:35:02;35.97;;;32.78;;
35522;SDS011;61478;50.820;4.330;2023-04-21T02:37:28;37.08;;;33.75;;
35522;SDS011;61478;50.820;4.330;2023-04-21T02:39:54;37.55;;;34.05;;
35522;SDS011;61478;50.820;4.330;2023-04-21T02:42:20;38.40;;;34.88;;
35522;SDS011;61478;50.820;4.330;2023-04-21T02:44:46;38.38;;;34.97;;
35522;SDS011;61478;50.820;4.330;2023-04-21T02:47:13;37.08;;;33.78;;
35522;SDS011;61478;50.820;4.330;2023-04-21T02:49:40;38.00;;;34.55;;
35522;SDS011;61478;50.820;4.330;2023-04-21T02:52:07;36.13;;;32.78;;
35522;SDS011;61478;50.820;4.330;2023-04-21T02:54:33;35.83;;;32.63;;
35522;SDS011;61478;50.820;4.330;2023-04-21T02:56:58;35.88;;;32.75;;
35522;SDS011;61478;50.820;4.330;2023-04-21T02:59:25;38.72;;;35.08;;
35522;SDS011;61478;50.820;4.330;2023-04-21T03:01:51;38.25;;;34.75;;
35522;SDS011;61478;50.820;4.330;2023-04-21T03:04:17;37.75;;;34.15;;
35522;SDS011;61478;50.820;4.330;2023-04-21T03:06:43;38.88;;;35.33;;
35522;SDS011;61478;50.820;4.330;2023-04-21T03:09:09;39.58;;;36.00;;
35522;SDS011;61478;50.820;4.330;2023-04-21T03:11:35;39.75;;;36.15;;
35522;SDS011;61478;50.820;4.330;2023-04-21T03:14:01;39.13;;;35.55;;
35522;SDS011;61478;50.820;4.330;2023-04-21T03:16:27;38.88;;;35.47;;
35522;SDS011;61478;50.820;4.330;2023-04-21T03:18:53;39.90;;;36.20;;
35522;SDS011;61478;50.820;4.330;2023-04-21T03:21:19;40.78;;;37.15;;
35522;SDS011;61478;50.820;4.330;2023-04-21T03:23:45;40.47;;;36.88;;
35522;SDS011;61478;50.820;4.330;2023-04-21T03:26:11;42.17;;;38.20;;
35522;SDS011;61478;50.820;4.330;2023-04-21T03:28:37;41.67;;;37.72;;
35522;SDS011;61478;50.820;4.330;2023-04-21T03:31:03;40.28;;;36.67;;
35522;SDS011;61478;50.820;4.330;2023-04-21T03:33:28;42.00;;;38.22;;
35522;SDS011;61478;50.820;4.330;2023-04-21T03:35:54;42.63;;;38.53;;
35522;SDS011;61478;50.820;4.330;2023-04-21T03:38:20;41.58;;;37.97;;
35522;SDS011;61478;50.820;4.330;2023-04-21T03:40:46;41.38;;;37.72;;
35522;SDS011;61478;50.820;4.330;2023-04-21T03:43:12;41.63;;;37.83;;
35522;SDS011;61478;50.820;4.330;2023-04-21T03:45:38;41.60;;;37.83;;
35522;SDS011;61478;50.820;4.330;2023-04-21T03:48:07;42.47;;;38.67;;
35522;SDS011;61478;50.820;4.330;2023-04-21T03:50:33;42.40;;;38.58;;
35522;SDS011;61478;50.820;4.330;2023-04-21T03:52:58;43.40;;;39.25;;
35522;SDS011;61478;50.820;4.330;2023-04-21T03:55:24;43.88;;;39.78;;
35522;SDS011;61478;50.820;4.330;2023-04-21T03:57:50;41.90;;;38.03;;
35522;SDS011;61478;50.820;4.330;2023-04-21T04:00:16;44.00;;;39.90;;
35522;SDS011;61478;50.820;4.330;2023-04-21T04:02:42;42.70;;;38.90;;
35522;SDS011;61478;50.820;4.330;2023-04-21T04:05:07;43.00;;;38.85;;
35522;SDS011;61478;50.820;4.330;2023-04-21T04:07:33;44.97;;;40.88;;
35522;SDS011;61478;50.820;4.330;2023-04-21T04:09:59;45.05;;;40.95;;
35522;SDS011;61478;50.820;4.330;2023-04-21T04:12:25;44.97;;;40.88;;
35522;SDS011;61478;50.820;4.330;2023-04-21T04:14:51;43.05;;;39.05;;
35522;SDS011;61478;50.820;4.330;2023-04-21T04:17:17;42.38;;;38.33;;
35522;SDS011;61478;50.820;4.330;2023-04-21T04:19:43;43.95;;;39.95;;
35522;SDS011;61478;50.820;4.330;2023-04-21T04:22:08;42.58;;;38.67;;
35522;SDS011;61478;50.820;4.330;2023-04-21T04:24:34;41.28;;;37.35;;
35522;SDS011;61478;50.820;4.330;2023-04-21T04:27:00;42.25;;;38.17;;
35522;SDS011;61478;50.820;4.330;2023-04-21T04:29:27;44.35;;;40.13;;
35522;SDS011;61478;50.820;4.330;2023-04-21T04:31:53;43.25;;;39.45;;
35522;SDS011;61478;50.820;4.330;2023-04-21T04:34:20;45.78;;;41.55;;
35522;SDS011;61478;50.820;4.330;2023-04-21T04:36:48;46.92;;;42.53;;
35522;SDS011;61478;50.820;4.330;2023-04-21T04:39:16;45.35;;;41.03;;
35522;SDS011;61478;50.820;4.330;2023-04-21T04:41:42;44.15;;;39.92;;
35522;SDS011;61478;50.820;4.330;2023-04-21T04:44:08;45.03;;;40.83;;
35522;SDS011;61478;50.820;4.330;2023-04-21T04:46:35;43.25;;;39.10;;
35522;SDS011;61478;50.820;4.330;2023-04-21T04:49:01;42.78;;;38.85;;
35522;SDS011;61478;50.820;4.330;2023-04-21T04:51:27;43.10;;;39.10;;
35522;SDS011;61478;50.820;4.330;2023-04-21T04:53:53;43.45;;;39.38;;
35522;SDS011;61478;50.820;4.330;2023-04-21T04:56:19;42.97;;;39.00;;
35522;SDS011;61478;50.820;4.330;2023-04-21T04:58:45;42.70;;;38.55;;
35522;SDS011;61478;50.820;4.330;2023-04-21T05:01:16;42.85;;;38.83;;
35522;SDS011;61478;50.820;4.330;2023-04-21T05:03:43;42.60;;;38.70;;
35522;SDS011;61478;50.820;4.330;2023-04-21T05:06:09;42.20;;;38.35;;
35522;SDS011;61478;50.820;4.330;2023-04-21T05:08:35;41.70;;;37.63;;
35522;SDS011;61478;50.820;4.330;2023-04-21T05:11:01;42.95;;;38.78;;
35522;SDS011;61478;50.820;4.330;2023-04-21T05:13:27;43.05;;;38.92;;
35522;SDS011;61478;50.820;4.330;2023-04-21T05:15:59;43.65;;;39.47;;
35522;SDS011;61478;50.820;4.330;2023-04-21T05:18:28;42.15;;;38.15;;
35522;SDS011;61478;50.820;4.330;2023-04-21T05:20:54;41.75;;;37.75;;
35522;SDS011;61478;50.820;4.330;2023-04-21T05:23:20;40.53;;;36.65;;
35522;SDS011;61478;50.820;4.330;2023-04-21T05:25:46;41.47;;;37.67;;
35522;SDS011;61478;50.820;4.330;2023-04-21T05:28:12;37.83;;;34.38;;
35522;SDS011;61478;50.820;4.330;2023-04-21T05:30:39;40.13;;;36.20;;
35522;SDS011;61478;50.820;4.330;2023-04-21T05:33:05;38.08;;;34.50;;
35522;SDS011;61478;50.820;4.330;2023-04-21T05:35:31;36.08;;;32.83;;
35522;SDS011;61478;50.820;4.330;2023-04-21T05:37:57;36.95;;;33.55;;
35522;SDS011;61478;50.820;4.330;2023-04-21T05:40:23;35.70;;;32.28;;
35522;SDS011;61478;50.820;4.330;2023-04-21T05:42:49;35.03;;;31.27;;
35522;SDS011;61478;50.820;4.330;2023-04-21T05:45:16;34.50;;;31.27;;
35522;SDS011;61478;50.820;4.330;2023-04-21T05:47:41;34.45;;;31.25;;
35522;SDS011;61478;50.820;4.330;2023-04-21T05:50:08;34.30;;;31.00;;
35522;SDS011;61478;50.820;4.330;2023-04-21T05:52:34;34.60;;;31.25;;
35522;SDS011;61478;50.820;4.330;2023-04-21T05:55:01;34.83;;;31.52;;
35522;SDS011;61478;50.820;4.330;2023-04-21T05:57:27;33.00;;;29.88;;
35522;SDS011;61478;50.820;4.330;2023-04-21T05:59:53;35.35;;;31.90;;
35522;SDS011;61478;50.820;4.330;2023-04-21T06:02:18;35.58;;;32.03;;
35522;SDS011;61478;50.820;4.330;2023-04-21T06:04:44;33.70;;;30.50;;
35522;SDS011;61478;50.820;4.330;2023-04-21T06:07:13;34.75;;;31.48;;
35522;SDS011;61478;50.820;4.330;2023-04-21T06:09:41;33.05;;;29.58;;
35522;SDS011;61478;50.820;4.330;2023-04-21T06:12:07;33.63;;;30.35;;
35522;SDS011;61478;50.820;4.330;2023-04-21T06:14:33;34.38;;;31.25;;
35522;SDS011;61478;50.820;4.330;2023-04-21T06:16:59;32.03;;;29.05;;
35522;SDS011;61478;50.820;4.330;2023-04-21T06:19:25;33.22;;;29.92;;
35522;SDS011;61478;50.820;4.330;2023-04-21T06:21:51;35.15;;;32.00;;
35522;SDS011;61478;50.820;4.330;2023-04-21T06:24:16;32.65;;;29.35;;
35522;SDS011;61478;50.820;4.330;2023-04-21T06:26:49;33.20;;;30.05;;
35522;SDS011;61478;50.820;4.330;2023-04-21T06:29:16;33.67;;;30.15;;
35522;SDS011;61478;50.820;4.330;2023-04-21T06:31:42;34.13;;;30.75;;
35522;SDS011;61478;50.820;4.330;2023-04-21T06:34:08;33.28;;;29.65;;
35522;SDS011;61478;50.820;4.330;2023-04-21T06:36:34;30.08;;;27.27;;
35522;SDS011;61478;50.820;4.330;2023-04-21T06:39:00;32.30;;;29.10;;
35522;SDS011;61478;50.820;4.330;2023-04-21T06:41:26;29.30;;;26.58;;
35522;SDS011;61478;50.820;4.330;2023-04-21T06:43:52;29.92;;;26.88;;
35522;SDS011;61478;50.820;4.330;2023-04-21T06:46:18;29.17;;;25.67;;
35522;SDS011;61478;50.820;4.330;2023-04-21T06:48:44;31.70;;;28.73;;
35522;SDS011;61478;50.820;4.330;2023-04-21T06:51:10;28.45;;;25.60;;
35522;SDS011;61478;50.820;4.330;2023-04-21T06:53:36;29.33;;;26.52;;
35522;SDS011;61478;50.820;4.330;2023-04-21T06:56:02;27.05;;;24.50;;
35522;SDS011;61478;50.820;4.330;2023-04-21T06:58:28;26.73;;;23.08;;
35522;SDS011;61478;50.820;4.330;2023-04-21T07:00:56;24.70;;;22.27;;
35522;SDS011;61478;50.820;4.330;2023-04-21T07:03:22;24.50;;;22.05;;
35522;SDS011;61478;50.820;4.330;2023-04-21T07:05:48;26.38;;;23.83;;
35522;SDS011;61478;50.820;4.330;2023-04-21T07:08:14;23.80;;;21.50;;
35522;SDS011;61478;50.820;4.330;2023-04-21T07:10:40;26.25;;;23.55;;
35522;SDS011;61478;50.820;4.330;2023-04-21T07:13:06;31.63;;;23.10;;
35522;SDS011;61478;50.820;4.330;2023-04-21T07:15:32;26.35;;;21.52;;
35522;SDS011;61478;50.820;4.330;2023-04-21T07:17:58;23.35;;;20.63;;
35522;SDS011;61478;50.820;4.330;2023-04-21T07:20:24;23.05;;;20.73;;
35522;SDS011;61478;50.820;4.330;2023-04-21T07:22:50;24.35;;;21.85;;
35522;SDS011;61478;50.820;4.330;2023-04-21T07:25:19;36.70;;;21.45;;
35522;SDS011;61478;50.820;4.330;2023-04-21T07:27:45;21.85;;;19.65;;
35522;SDS011;61478;50.820;4.330;2023-04-21T07:30:11;23.10;;;20.95;;
35522;SDS011;61478;50.820;4.330;2023-04-21T07:32:37;23.55;;;21.08;;
35522;SDS011;61478;50.820;4.330;2023-04-21T07:35:03;20.40;;;18.50;;
35522;SDS011;61478;50.820;4.330;2023-04-21T07:37:30;21.77;;;19.58;;
35522;SDS011;61478;50.820;4.330;2023-04-21T07:39:56;29.80;;;23.95;;
35522;SDS011;61478;50.820;4.330;2023-04-21T07:42:21;26.70;;;19.88;;
35522;SDS011;61478;50.820;4.330;2023-04-21T07:44:47;19.17;;;17.17;;
35522;SDS011;61478;50.820;4.330;2023-04-21T07:47:13;21.00;;;18.73;;
35522;SDS011;61478;50.820;4.330;2023-04-21T07:49:40;18.40;;;16.60;;
35522;SDS011;61478;50.820;4.330;2023-04-21T07:52:06;19.60;;;17.52;;
35522;SDS011;61478;50.820;4.330;2023-04-21T07:54:32;19.35;;;17.35;;
35522;SDS011;61478;50.820;4.330;2023-04-21T07:56:58;21.38;;;16.90;;
35522;SDS011;61478;50.820;4.330;2023-04-21T07:59:26;21.95;;;16.63;;
35522;SDS011;61478;50.820;4.330;2023-04-21T08:01:52;21.77;;;16.85;;
35522;SDS011;61478;50.820;4.330;2023-04-21T08:04:18;19.70;;;15.95;;
35522;SDS011;61478;50.820;4.330;2023-04-21T08:06:44;43.72;;;18.52;;
35522;SDS011;61478;50.820;4.330;2023-04-21T08:09:10;18.85;;;16.58;;
35522;SDS011;61478;50.820;4.330;2023-04-21T08:11:37;23.50;;;16.25;;
35522;SDS011;61478;50.820;4.330;2023-04-21T08:14:03;18.70;;;16.90;;
35522;SDS011;61478;50.820;4.330;2023-04-21T08:16:29;17.98;;;16.17;;
35522;SDS011;61478;50.820;4.330;2023-04-21T08:18:55;17.42;;;15.73;;
35522;SDS011;61478;50.820;4.330;2023-04-21T08:21:21;19.77;;;15.98;;
35522;SDS011;61478;50.820;4.330;2023-04-21T08:23:48;20.65;;;16.08;;
35522;SDS011;61478;50.820;4.330;2023-04-21T08:26:17;18.25;;;14.82;;
35522;SDS011;61478;50.820;4.330;2023-04-21T08:28:45;30.92;;;15.23;;
35522;SDS011;61478;50.820;4.330;2023-04-21T08:31:14;34.90;;;16.20;;
35522;SDS011;61478;50.820;4.330;2023-04-21T08:33:41;17.30;;;14.00;;
35522;SDS011;61478;50.820;4.330;2023-04-21T08:36:07;17.92;;;13.65;;
35522;SDS011;61478;50.820;4.330;2023-04-21T08:38:34;27.77;;;15.60;;
35522;SDS011;61478;50.820;4.330;2023-04-21T08:41:03;25.73;;;14.85;;
35522;SDS011;61478;50.820;4.330;2023-04-21T08:43:30;14.25;;;12.75;;
35522;SDS011;61478;50.820;4.330;2023-04-21T08:45:57;14.98;;;13.50;;
35522;SDS011;61478;50.820;4.330;2023-04-21T08:48:27;13.73;;;12.43;;
35522;SDS011;61478;50.820;4.330;2023-04-21T08:50:55;13.35;;;12.05;;
35522;SDS011;61478;50.820;4.330;2023-04-21T08:53:22;15.00;;;12.65;;
35522;SDS011;61478;50.820;4.330;2023-04-21T08:55:51;13.52;;;12.18;;
35522;SDS011;61478;50.820;4.330;2023-04-21T08:58:19;13.60;;;12.25;;
35522;SDS011;61478;50.820;4.330;2023-04-21T09:00:47;20.92;;;12.93;;
35522;SDS011;61478;50.820;4.330;2023-04-21T09:03:22;13.90;;;12.50;;
35522;SDS011;61478;50.820;4.330;2023-04-21T09:05:56;14.18;;;11.48;;
35522;SDS011;61478;50.820;4.330;2023-04-21T09:08:23;13.98;;;11.57;;
35522;SDS011;61478;50.820;4.330;2023-04-21T09:10:53;12.95;;;11.63;;
35522;SDS011;61478;50.820;4.330;2023-04-21T09:13:19;43.58;;;13.57;;
35522;SDS011;61478;50.820;4.330;2023-04-21T09:15:48;12.13;;;10.93;;
35522;SDS011;61478;50.820;4.330;2023-04-21T09:18:19;12.18;;;11.02;;
35522;SDS011;61478;50.820;4.330;2023-04-21T09:20:50;16.98;;;10.50;;
35522;SDS011;61478;50.820;4.330;2023-04-21T09:23:17;24.70;;;11.52;;
35522;SDS011;61478;50.820;4.330;2023-04-21T09:25:45;15.52;;;9.88;;
35522;SDS011;61478;50.820;4.330;2023-04-21T09:28:12;14.10;;;10.18;;
35522;SDS011;61478;50.820;4.330;2023-04-21T09:30:39;11.93;;;10.82;;
35522;SDS011;61478;50.820;4.330;2023-04-21T09:33:06;13.32;;;10.60;;
35522;SDS011;61478;50.820;4.330;2023-04-21T09:35:33;40.78;;;11.80;;
35522;SDS011;61478;50.820;4.330;2023-04-21T09:38:00;16.08;;;10.80;;
35522;SDS011;61478;50.820;4.330;2023-04-21T09:40:30;10.43;;;9.38;;
35522;SDS011;61478;50.820;4.330;2023-04-21T09:42:56;25.65;;;23.13;;
35522;SDS011;61478;50.820;4.330;2023-04-21T09:45:26;20.00;;;9.63;;
35522;SDS011;61478;50.820;4.330;2023-04-21T09:47:56;11.60;;;9.07;;
35522;SDS011;61478;50.820;4.330;2023-04-21T09:50:25;11.90;;;9.45;;
35522;SDS011;61478;50.820;4.330;2023-04-21T09:52:52;10.23;;;9.07;;
35522;SDS011;61478;50.820;4.330;2023-04-21T09:55:21;11.80;;;9.25;;
35522;SDS011;61478;50.820;4.330;2023-04-21T09:57:51;11.25;;;9.32;;
35522;SDS011;61478;50.820;4.330;2023-04-21T10:00:24;11.20;;;9.48;;
35522;SDS011;61478;50.820;4.330;2023-04-21T10:02:52;13.32;;;9.95;;
35522;SDS011;61478;50.820;4.330;2023-04-21T10:05:19;10.90;;;9.50;;
35522;SDS011;61478;50.820;4.330;2023-04-21T10:07:45;9.88;;;8.93;;
35522;SDS011;61478;50.820;4.330;2023-04-21T10:10:15;9.25;;;8.32;;
35522;SDS011;61478;50.820;4.330;2023-04-21T10:12:46;9.70;;;7.93;;
35522;SDS011;61478;50.820;4.330;2023-04-21T10:15:31;10.63;;;8.85;;
35522;SDS011;61478;50.820;4.330;2023-04-21T10:18:20;11.27;;;8.50;;
35522;SDS011;61478;50.820;4.330;2023-04-21T10:20:57;10.85;;;7.95;;
35522;SDS011;61478;50.820;4.330;2023-04-21T10:23:28;10.15;;;8.65;;
35522;SDS011;61478;50.820;4.330;2023-04-21T10:26:07;11.30;;;7.50;;
35522;SDS011;61478;50.820;4.330;2023-04-21T10:29:21;11.73;;;8.20;;
35522;SDS011;61478;50.820;4.330;2023-04-21T10:39:25;9.35;;;8.25;;
35522;SDS011;61478;50.820;4.330;2023-04-21T10:42:16;10.98;;;9.82;;
35522;SDS011;61478;50.820;4.330;2023-04-21T10:44:44;12.68;;;8.63;;
35522;SDS011;61478;50.820;4.330;2023-04-21T10:49:51;9.52;;;8.23;;
35522;SDS011;61478;50.820;4.330;2023-04-21T10:52:16;10.15;;;8.85;;
35522;SDS011;61478;50.820;4.330;2023-04-21T10:57:11;9.52;;;7.80;;
35522;SDS011;61478;50.820;4.330;2023-04-21T10:59:38;9.20;;;8.25;;
35522;SDS011;61478;50.820;4.330;2023-04-21T11:02:05;9.15;;;8.25;;
35522;SDS011;61478;50.820;4.330;2023-04-21T11:04:32;8.95;;;8.05;;
35522;SDS011;61478;50.820;4.330;2023-04-21T11:07:09;9.48;;;7.97;;
35522;SDS011;61478;50.820;4.330;2023-04-21T11:09:36;11.07;;;8.18;;
35522;SDS011;61478;50.820;4.330;2023-04-21T11:12:04;9.13;;;8.23;;
35522;SDS011;61478;50.820;4.330;2023-04-21T11:14:38;9.02;;;8.13;;
35522;SDS011;61478;50.820;4.330;2023-04-21T11:17:15;9.55;;;7.13;;
35522;SDS011;61478;50.820;4.330;2023-04-21T11:19:46;9.27;;;7.72;;
35522;SDS011;61478;50.820;4.330;2023-04-21T11:22:18;9.88;;;7.70;;
35522;SDS011;61478;50.820;4.330;2023-04-21T11:24:45;9.35;;;8.48;;
35522;SDS011;61478;50.820;4.330;2023-04-21T11:27:12;12.52;;;7.93;;
35522;SDS011;61478;50.820;4.330;2023-04-21T11:29:40;13.10;;;8.40;;
35522;SDS011;61478;50.820;4.330;2023-04-21T11:32:06;9.05;;;7.05;;
35522;SDS011;61478;50.820;4.330;2023-04-21T11:34:35;13.13;;;8.30;;
35522;SDS011;61478;50.820;4.330;2023-04-21T11:37:02;12.02;;;9.20;;
35522;SDS011;61478;50.820;4.330;2023-04-21T11:39:28;11.30;;;9.63;;
35522;SDS011;61478;50.820;4.330;2023-04-21T11:41:54;10.13;;;7.93;;
35522;SDS011;61478;50.820;4.330;2023-04-21T11:44:31;11.85;;;7.90;;
35522;SDS011;61478;50.820;4.330;2023-04-21T11:47:14;8.25;;;7.40;;
35522;SDS011;61478;50.820;4.330;2023-04-21T11:49:44;9.38;;;8.45;;
35522;SDS011;61478;50.820;4.330;2023-04-21T11:54:46;9.23;;;7.03;;
35522;SDS011;61478;50.820;4.330;2023-04-21T11:57:16;11.77;;;6.60;;
35522;SDS011;61478;50.820;4.330;2023-04-21T11:59:44;8.95;;;6.60;;
35522;SDS011;61478;50.820;4.330;2023-04-21T12:02:12;9.38;;;6.93;;
35522;SDS011;61478;50.820;4.330;2023-04-21T12:04:55;21.95;;;8.02;;
35522;SDS011;61478;50.820;4.330;2023-04-21T12:07:31;7.80;;;7.10;;
35522;SDS011;61478;50.820;4.330;2023-04-21T12:09:59;10.48;;;7.50;;
35522;SDS011;61478;50.820;4.330;2023-04-21T12:12:25;8.20;;;7.07;;
35522;SDS011;61478;50.820;4.330;2023-04-21T12:14:51;10.90;;;7.35;;
35522;SDS011;61478;50.820;4.330;2023-04-21T12:17:18;13.98;;;7.80;;
35522;SDS011;61478;50.820;4.330;2023-04-21T12:19:44;8.15;;;6.90;;
35522;SDS011;61478;50.820;4.330;2023-04-21T12:22:12;8.32;;;6.75;;
35522;SDS011;61478;50.820;4.330;2023-04-21T12:24:39;11.40;;;7.18;;
35522;SDS011;61478;50.820;4.330;2023-04-21T12:27:06;12.20;;;8.93;;
35522;SDS011;61478;50.820;4.330;2023-04-21T12:29:33;8.40;;;7.18;;
35522;SDS011;61478;50.820;4.330;2023-04-21T12:32:05;8.75;;;7.85;;
35522;SDS011;61478;50.820;4.330;2023-04-21T12:34:31;9.23;;;8.32;;
35522;SDS011;61478;50.820;4.330;2023-04-21T12:36:57;9.38;;;6.55;;
35522;SDS011;61478;50.820;4.330;2023-04-21T12:39:23;7.75;;;6.88;;
35522;SDS011;61478;50.820;4.330;2023-04-21T12:41:49;6.45;;;5.78;;
35522;SDS011;61478;50.820;4.330;2023-04-21T12:44:15;15.40;;;6.78;;
35522;SDS011;61478;50.820;4.330;2023-04-21T12:46:41;10.80;;;6.38;;
35522;SDS011;61478;50.820;4.330;2023-04-21T12:49:07;7.75;;;6.90;;
35522;SDS011;61478;50.820;4.330;2023-04-21T12:51:35;8.00;;;6.28;;
35522;SDS011;61478;50.820;4.330;2023-04-21T12:54:01;7.20;;;5.82;;
35522;SDS011;61478;50.820;4.330;2023-04-21T12:56:27;14.77;;;7.18;;
35522;SDS011;61478;50.820;4.330;2023-04-21T12:58:54;8.60;;;4.68;;
35522;SDS011;61478;50.820;4.330;2023-04-21T13:01:20;11.20;;;4.90;;
35522;SDS011;61478;50.820;4.330;2023-04-21T13:03:47;9.55;;;4.70;;
35522;SDS011;61478;50.820;4.330;2023-04-21T13:06:13;8.48;;;4.50;;
35522;SDS011;61478;50.820;4.330;2023-04-21T13:08:39;12.20;;;5.70;;
35522;SDS011;61478;50.820;4.330;2023-04-21T13:11:05;9.32;;;5.65;;
35522;SDS011;61478;50.820;4.330;2023-04-21T13:13:31;15.98;;;5.63;;
35522;SDS011;61478;50.820;4.330;2023-04-21T13:15:57;10.63;;;6.57;;
35522;SDS011;61478;50.820;4.330;2023-04-21T13:18:23;9.13;;;7.03;;
35522;SDS011;61478;50.820;4.330;2023-04-21T13:20:49;8.90;;;6.20;;
35522;SDS011;61478;50.820;4.330;2023-04-21T13:23:15;8.90;;;5.53;;
35522;SDS011;61478;50.820;4.330;2023-04-21T13:25:41;13.00;;;8.38;;
35522;SDS011;61478;50.820;4.330;2023-04-21T13:28:09;8.57;;;7.10;;
35522;SDS011;61478;50.820;4.330;2023-04-21T13:30:35;9.98;;;7.43;;
35522;SDS011;61478;50.820;4.330;2023-04-21T13:33:02;14.73;;;7.53;;
35522;SDS011;61478;50.820;4.330;2023-04-21T13:35:29;13.52;;;7.60;;
35522;SDS011;61478;50.820;4.330;2023-04-21T13:37:55;9.35;;;7.68;;
35522;SDS011;61478;50.820;4.330;2023-04-21T13:40:20;11.40;;;7.90;;
35522;SDS011;61478;50.820;4.330;2023-04-21T13:42:46;12.50;;;8.52;;
35522;SDS011;61478;50.820;4.330;2023-04-21T13:45:12;9.70;;;8.05;;
35522;SDS011;61478;50.820;4.330;2023-04-21T13:47:38;10.10;;;7.55;;
35522;SDS011;61478;50.820;4.330;2023-04-21T13:50:04;10.07;;;7.28;;
35522;SDS011;61478;50.820;4.330;2023-04-21T13:52:31;11.85;;;7.97;;
35522;SDS011;61478;50.820;4.330;2023-04-21T13:54:58;17.02;;;8.18;;
35522;SDS011;61478;50.820;4.330;2023-04-21T13:57:24;20.63;;;8.27;;
35522;SDS011;61478;50.820;4.330;2023-04-21T13:59:50;14.93;;;8.20;;
35522;SDS011;61478;50.820;4.330;2023-04-21T14:02:18;13.65;;;8.45;;
35522;SDS011;61478;50.820;4.330;2023-04-21T14:04:47;10.45;;;7.38;;
35522;SDS011;61478;50.820;4.330;2023-04-21T14:07:13;8.90;;;7.90;;
35522;SDS011;61478;50.820;4.330;2023-04-21T14:09:42;14.10;;;7.10;;
35522;SDS011;61478;50.820;4.330;2023-04-21T14:12:08;12.13;;;6.13;;
35522;SDS011;61478;50.820;4.330;2023-04-21T14:14:35;13.25;;;6.47;;
35522;SDS011;61478;50.820;4.330;2023-04-21T14:17:02;8.00;;;6.45;;
35522;SDS011;61478;50.820;4.330;2023-04-21T14:19:28;9.07;;;6.40;;
35522;SDS011;61478;50.820;4.330;2023-04-21T14:21:56;9.73;;;5.78;;
35522;SDS011;61478;50.820;4.330;2023-04-21T14:24:22;8.93;;;6.25;;
35522;SDS011;61478;50.820;4.330;2023-04-21T14:26:48;10.57;;;7.82;;
35522;SDS011;61478;50.820;4.330;2023-04-21T14:29:14;8.07;;;5.32;;
35522;SDS011;61478;50.820;4.330;2023-04-21T14:31:40;9.85;;;6.00;;
35522;SDS011;61478;50.820;4.330;2023-04-21T14:34:05;11.18;;;5.13;;
35522;SDS011;61478;50.820;4.330;2023-04-21T14:36:32;7.15;;;5.78;;
35522;SDS011;61478;50.820;4.330;2023-04-21T14:38:57;9.73;;;6.10;;
35522;SDS011;61478;50.820;4.330;2023-04-21T14:41:23;14.15;;;5.80;;
35522;SDS011;61478;50.820;4.330;2023-04-21T14:43:49;8.30;;;5.63;;